Aruba, Aruba

1:46 AM AST on August 31, 2014 (GMT -0400)
Oranjestad-Reina Beatrix International | Change Station
CLOSE
Current Station
Airport
Location: Aruba,
Elevation: 59 ft
Nearby Weather Stations

Elev 59 ft 12.50 °N, 70.02 °W | Updated 46 minutes ago

Partly Cloudy
Partly Cloudy
82 °F
Feels Like 90 °F
N
16
Wind Variable Wind from ENE

Today
High -- | Low -- °F
--% Chance of Precip.
Yesterday
High -- | Low -- °F
Precip. -- in
6:29 AM 6:51 PM
Waxing Crescent, 28% visible
Pressure 29.92 in
Visibility 6.2 miles
Clouds Few 1800 ft
Heat Index 90 °F
Dew Point 75 °F
Humidity 79%
Rainfall 0.00 in
Snow Depth Not available.
UV 0 out of 12
Pollen Not available.
Air Quality Not available.
Flu Activity Not available.
METAR TNCA 310500Z 07014KT 9999 FEW018 28/24 Q1013 A2993 NOSIG

More Conditions Fewer Conditions

Pressure 29.92 in
Visibility 6.2 miles
Clouds Few 1800 ft
Heat Index 90 °F
Dew Point 75 °F
Humidity 79%
Rainfall 0.00 in
Snow Depth Not available.
UV 0 out of 12
Pollen Not available.
Air Quality Not available.
Flu Activity Not available.
METAR TNCA 310500Z 07014KT 9999 FEW018 28/24 Q1013 A2993 NOSIG

More Conditions Fewer Conditions

10-Day Weather Forecast

Almanac

Astronomy

Aug. 31, 2014 Rise Set
Actual Time 6:29 AM AST 6:51 PM AST
Civil Twilight 6:07 AM AST 7:12 PM AST
Nautical Twilight 5:42 AM AST 7:37 PM AST
Astronomical Twilight 5:17 AM AST 8:02 PM AST
Moon 11:11 AM AST 11:07 PM AST
Length of Visible Light 13h 04m
Length of Day
12h 21m
Tomorrow will be 0m 40s shorter.
Waxing Crescent, 28% of the Moon is Illuminated
Today
Waxing Crescent
Sep 2
First Quarter
Sep 8
Full
Sep 15
Last Quarter
Sep 24
New

Yesterday's Extremes

Country Highs Country Lows

Community

WunderPhotos

Upload Photos

1,748,790 photos uploaded!

Nearby

Snow Depth

Not available.

Earthquake Activity

City Distance Mag. Time & Date
No recent earthquake activity has been reported nearby.
Minimum magnitude displayed is 2.5.

Coastal Water Temperatures

Place Temperature
No Stations Reporting

Nearby Weather Stations